Ponca, Arkansas
Current Conditions -  °F | °C
As of 9:53 PM on Thursday 20 Nov 2014 (Local Time) from KHRO Reporting Station
Clear Clear  
Wind Chill: 31°   Ceiling: Unl
Heat Index: 38°   Visibility: 10mi
Dew Point: 26°   Wind: 9mph
Humidity: 62%   Direction: 120°ESE
Pressure: 30.2"   Gusts: NA
Location:  36.02°N, 93.37°W
Report Text: KHRO 210353Z AUTO 12008KT 10SM CLR 03/M03 A3020 RMK AO2 SLP232 T00331033
Loading
Personal Weather Stations






























Interactive Weather Map New forecast layout! Learn more

10-Day Weather Forecast

Advertisements
Track Severe Weather on mobile